Terminal Aerodrome Forecast
Issued by NWS Pueblo, CO

Home | Current Version | Previous Version | Text Only | Print | Product List | Glossary On
Versions: 1 2 3 4 5 6 7 8 9 10 11 12 13 14 15 16 17 18 19 20 21 22 23 24 25 26 27 28 29 30 31 32 33
000
FTUS45 KPUB 020027 AAA
TAFCOS
TAF AMD
KCOS 020027Z 0200/0224 35020G30KT P6SM BKN120
     FM020200 35013KT P6SM BKN120
     FM020500 36012KT P6SM FEW120 SCT200
     FM021000 05008KT P6SM BKN040
     FM021200 10007KT 2SM BR OVC012
     FM022000 17012KT P6SM SCT020 BKN150=

USA.gov is the U.S. government's official web portal to all federal, state and local government web resources and services.